Time;durP1;ratioP1;P1;durP2;ratioP2;P2;SDS_P1;SDS_P2;PMS_P1;PMS_P2;Temp;Humidity;BMP_temperature;BMP_pressure;BME280_temperature;BME280_humidity;BME280_pressure;Samples;Min_cycle;Max_cycle;Signal;HPM_P1;HPM_P2
2023/03/26 00:01:12;;;;;;;12.60;2.63;;;;;;;;;;5010758;28;20448;-72
2023/03/26 00:03:39;;;;;;;12.47;2.77;;;;;;;;;;5013651;28;20621;-72
2023/03/26 00:06:06;;;;;;;9.13;2.50;;;;;;;;;;5010296;28;20592;-72
2023/03/26 00:08:31;;;;;;;10.60;3.40;;;;;;;;;;5004001;28;20460;-72
2023/03/26 00:10:57;;;;;;;17.83;2.97;;;;;;;;;;5005777;28;20432;-72
2023/03/26 00:13:22;;;;;;;13.77;2.67;;;;;;;;;;5008290;28;20197;-71
2023/03/26 00:15:47;;;;;;;15.80;2.63;;;;;;;;;;5011465;28;20208;-72
2023/03/26 00:18:12;;;;;;;9.40;2.13;;;;;;;;;;5004705;28;20549;-71
2023/03/26 00:20:40;;;;;;;14.30;2.90;;;;;;;;;;5009825;28;20176;-72
2023/03/26 00:23:06;;;;;;;14.90;2.80;;;;;;;;;;5023572;28;20674;-72
2023/03/26 00:25:33;;;;;;;15.20;3.10;;;;;;;;;;5007839;28;20436;-72
2023/03/26 00:27:58;;;;;;;12.90;3.60;;;;;;;;;;5010886;28;20474;-72
2023/03/26 00:30:23;;;;;;;17.93;2.70;;;;;;;;;;5009671;28;20440;-72
2023/03/26 00:32:49;;;;;;;13.73;3.20;;;;;;;;;;5010755;28;20606;-72
2023/03/26 00:35:14;;;;;;;15.80;2.70;;;;;;;;;;5014230;28;20212;-72
2023/03/26 00:37:41;;;;;;;11.03;1.80;;;;;;;;;;5015712;28;20323;-72
2023/03/26 00:40:09;;;;;;;10.40;2.30;;;;;;;;;;5015642;28;20644;-72
2023/03/26 00:42:35;;;;;;;8.23;2.07;;;;;;;;;;5015714;28;20988;-72
2023/03/26 00:45:00;;;;;;;9.20;1.77;;;;;;;;;;5016736;28;20447;-72
2023/03/26 00:47:26;;;;;;;11.20;2.23;;;;;;;;;;5015308;28;20188;-72
2023/03/26 00:49:52;;;;;;;5.70;1.67;;;;;;;;;;5015579;28;20220;-72
2023/03/26 00:52:22;;;;;;;9.13;2.00;;;;;;;;;;5013017;28;20450;-72
2023/03/26 00:54:50;;;;;;;10.13;2.20;;;;;;;;;;5009233;28;20297;-72
2023/03/26 00:57:15;;;;;;;8.20;2.23;;;;;;;;;;5011225;28;20830;-72
2023/03/26 00:59:41;;;;;;;5.90;2.40;;;;;;;;;;5007326;28;20485;-72
2023/03/26 01:02:09;;;;;;;10.37;2.60;;;;;;;;;;5009362;28;20187;-72
2023/03/26 01:04:36;;;;;;;11.73;2.23;;;;;;;;;;5004036;28;20207;-72
2023/03/26 01:07:08;;;;;;;8.10;2.17;;;;;;;;;;5013257;28;20851;-72
2023/03/26 01:09:34;;;;;;;11.60;2.17;;;;;;;;;;5011197;28;20821;-72
2023/03/26 01:12:01;;;;;;;8.47;2.13;;;;;;;;;;5007016;28;20443;-72
2023/03/26 01:14:30;;;;;;;20.20;2.40;;;;;;;;;;5011106;28;20467;-72
2023/03/26 01:16:57;;;;;;;9.37;1.93;;;;;;;;;;5010353;28;20428;-72
2023/03/26 01:19:32;;;;;;;10.77;2.23;;;;;;;;;;5009319;28;20460;-72
2023/03/26 01:21:58;;;;;;;10.23;2.10;;;;;;;;;;5011935;28;20439;-72
2023/03/26 01:24:23;;;;;;;9.70;2.70;;;;;;;;;;5010066;28;20647;-72
2023/03/26 01:26:49;;;;;;;9.37;1.93;;;;;;;;;;5006113;28;20243;-72
2023/03/26 01:29:34;;;;;;;10.23;2.40;;;;;;;;;;5013492;28;20208;-71
2023/03/26 01:31:59;;;;;;;10.23;1.70;;;;;;;;;;4985495;28;20193;-72
2023/03/26 01:34:29;;;;;;;7.00;2.20;;;;;;;;;;5014926;28;20517;-72
2023/03/26 01:37:13;;;;;;;9.37;2.00;;;;;;;;;;5019363;28;20185;-72
2023/03/26 01:39:48;;;;;;;11.90;2.80;;;;;;;;;;5015872;28;20872;-72
2023/03/26 01:42:36;;;;;;;10.03;1.97;;;;;;;;;;5015850;28;20433;-72
2023/03/26 01:45:08;;;;;;;13.30;3.20;;;;;;;;;;5011652;28;20511;-72
2023/03/26 01:47:35;;;;;;;9.90;2.80;;;;;;;;;;5013616;28;20437;-72
2023/03/26 01:50:00;;;;;;;17.50;3.53;;;;;;;;;;5018881;28;20463;-72
2023/03/26 01:52:26;;;;;;;12.30;2.80;;;;;;;;;;5016062;28;20529;-72
2023/03/26 01:54:53;;;;;;;13.80;3.87;;;;;;;;;;5018140;28;20665;-72
2023/03/26 01:57:37;;;;;;;12.23;2.80;;;;;;;;;;5017932;28;20208;-72
2023/03/26 02:00:11;;;;;;;17.93;3.30;;;;;;;;;;5014105;28;20440;-72
2023/03/26 02:02:46;;;;;;;15.57;3.43;;;;;;;;;;5006654;28;20469;-72
2023/03/26 02:05:14;;;;;;;9.10;2.30;;;;;;;;;;5010179;28;20459;-72
2023/03/26 02:07:39;;;;;;;10.87;2.63;;;;;;;;;;5013004;28;20466;-72
2023/03/26 02:10:14;;;;;;;12.10;3.07;;;;;;;;;;5013954;28;20573;-72
2023/03/26 02:12:41;;;;;;;11.77;3.10;;;;;;;;;;5011762;28;20433;-72
2023/03/26 02:15:06;;;;;;;13.70;2.80;;;;;;;;;;4998425;28;20478;-72
2023/03/26 02:17:32;;;;;;;12.00;2.50;;;;;;;;;;5002456;28;20432;-72
2023/03/26 02:19:57;;;;;;;14.67;3.13;;;;;;;;;;4997354;28;20248;-72
2023/03/26 02:22:28;;;;;;;13.83;2.70;;;;;;;;;;5005862;28;20181;-72
2023/03/26 02:24:54;;;;;;;19.83;2.60;;;;;;;;;;5007898;28;20536;-72
2023/03/26 02:27:20;;;;;;;13.13;3.13;;;;;;;;;;4999701;28;20518;-72
2023/03/26 02:29:46;;;;;;;12.63;3.20;;;;;;;;;;5003676;28;20895;-72
2023/03/26 02:32:12;;;;;;;11.50;2.80;;;;;;;;;;5005240;28;20177;-72
2023/03/26 02:34:38;;;;;;;10.53;2.57;;;;;;;;;;5008524;28;20470;-72
2023/03/26 02:37:03;;;;;;;9.40;1.83;;;;;;;;;;5005048;28;20184;-72
2023/03/26 02:39:29;;;;;;;9.90;2.13;;;;;;;;;;4999661;28;20456;-72
2023/03/26 02:41:54;;;;;;;11.50;2.87;;;;;;;;;;4995640;28;20716;-72
2023/03/26 02:44:19;;;;;;;19.30;2.93;;;;;;;;;;5007902;28;20192;-72
2023/03/26 02:46:44;;;;;;;10.03;2.30;;;;;;;;;;5007382;28;20181;-72
2023/03/26 02:49:10;;;;;;;12.97;2.23;;;;;;;;;;5008533;28;20204;-72
2023/03/26 02:51:36;;;;;;;9.17;2.33;;;;;;;;;;4999619;28;20546;-72
2023/03/26 02:54:01;;;;;;;10.67;2.30;;;;;;;;;;5007587;28;20246;-72
2023/03/26 02:56:27;;;;;;;10.20;2.87;;;;;;;;;;4995489;28;21060;-72
2023/03/26 02:58:52;;;;;;;8.90;2.03;;;;;;;;;;5007966;28;20741;-72
2023/03/26 03:01:18;;;;;;;12.20;1.80;;;;;;;;;;4999892;28;20536;-72
2023/03/26 03:03:43;;;;;;;6.07;1.97;;;;;;;;;;4995489;28;20705;-73
2023/03/26 03:06:08;;;;;;;10.40;2.40;;;;;;;;;;4998445;28;20205;-72
2023/03/26 03:08:33;;;;;;;9.07;1.93;;;;;;;;;;4995839;28;20207;-72
2023/03/26 03:11:00;;;;;;;8.97;2.00;;;;;;;;;;4998955;28;20185;-72
2023/03/26 03:13:26;;;;;;;9.47;1.97;;;;;;;;;;5007625;28;20789;-72
2023/03/26 03:15:51;;;;;;;8.30;2.03;;;;;;;;;;5002010;28;20518;-72
2023/03/26 03:18:17;;;;;;;9.10;2.10;;;;;;;;;;5008614;28;20216;-72
2023/03/26 03:20:43;;;;;;;9.27;2.27;;;;;;;;;;4997374;28;20733;-72
2023/03/26 03:23:08;;;;;;;13.47;2.50;;;;;;;;;;5005437;28;20188;-72
2023/03/26 03:25:33;;;;;;;6.40;1.60;;;;;;;;;;5002704;28;20427;-72
2023/03/26 03:27:59;;;;;;;6.77;1.73;;;;;;;;;;4998286;28;20708;-72
2023/03/26 03:30:24;;;;;;;8.53;2.20;;;;;;;;;;5000486;28;20177;-72
2023/03/26 03:32:50;;;;;;;8.60;1.90;;;;;;;;;;5003991;28;20642;-72
2023/03/26 03:35:15;;;;;;;9.67;1.90;;;;;;;;;;5002216;28;20296;-72
2023/03/26 03:37:40;;;;;;;7.23;2.30;;;;;;;;;;5004234;28;20173;-72
2023/03/26 03:40:09;;;;;;;16.07;2.97;;;;;;;;;;5021867;28;21570;-72
2023/03/26 03:42:34;;;;;;;10.23;2.50;;;;;;;;;;5009304;28;20176;-72
2023/03/26 03:45:00;;;;;;;8.83;2.27;;;;;;;;;;5002743;28;20439;-72
2023/03/26 03:47:26;;;;;;;9.30;3.53;;;;;;;;;;5003445;28;20693;-72
2023/03/26 03:49:52;;;;;;;10.90;2.60;;;;;;;;;;5002357;28;20554;-72
2023/03/26 03:52:17;;;;;;;12.50;2.50;;;;;;;;;;5001632;28;20189;-72
2023/03/26 03:54:43;;;;;;;9.97;2.50;;;;;;;;;;4999022;28;20578;-72
2023/03/26 03:57:08;;;;;;;8.50;2.60;;;;;;;;;;5001644;28;20769;-72
2023/03/26 03:59:52;;;;;;;9.47;2.70;;;;;;;;;;5084321;27;20563;-70
2023/03/26 04:02:24;;;;;;;8.60;2.27;;;;;;;;;;5087303;27;20442;-73
2023/03/26 04:04:53;;;;;;;10.40;2.07;;;;;;;;;;5084396;28;20510;-72
2023/03/26 04:07:19;;;;;;;10.50;2.47;;;;;;;;;;5085076;28;20488;-72
2023/03/26 04:09:45;;;;;;;13.20;2.40;;;;;;;;;;5084137;28;20474;-72
2023/03/26 04:12:10;;;;;;;10.53;2.07;;;;;;;;;;5096976;27;20455;-72
2023/03/26 04:14:35;;;;;;;10.23;2.50;;;;;;;;;;5092032;28;20721;-72
2023/03/26 04:17:01;;;;;;;15.27;2.60;;;;;;;;;;5089319;28;20209;-72
2023/03/26 04:19:26;;;;;;;11.33;2.90;;;;;;;;;;5100847;27;20200;-72
2023/03/26 04:21:51;;;;;;;12.87;2.60;;;;;;;;;;5089257;28;20182;-72
2023/03/26 04:24:17;;;;;;;9.40;3.20;;;;;;;;;;5085866;28;20180;-72
2023/03/26 04:26:42;;;;;;;11.60;2.83;;;;;;;;;;5088500;28;20228;-72
2023/03/26 04:29:11;;;;;;;9.67;2.00;;;;;;;;;;5085311;28;20221;-72
2023/03/26 04:31:37;;;;;;;8.17;2.57;;;;;;;;;;5089643;28;20170;-72
2023/03/26 04:34:13;;;;;;;8.67;2.60;;;;;;;;;;5108482;28;20779;-72
2023/03/26 04:36:41;;;;;;;11.07;2.30;;;;;;;;;;5094738;28;20200;-72
2023/03/26 04:39:09;;;;;;;6.80;1.93;;;;;;;;;;5090752;28;20868;-72
2023/03/26 04:41:34;;;;;;;10.47;3.03;;;;;;;;;;5094973;28;20415;-72
2023/03/26 04:44:00;;;;;;;6.67;1.97;;;;;;;;;;5089769;28;21375;-72
2023/03/26 04:46:26;;;;;;;6.37;1.90;;;;;;;;;;5104854;27;20555;-72
2023/03/26 04:48:52;;;;;;;17.93;2.90;;;;;;;;;;5092124;27;20492;-72
2023/03/26 04:51:19;;;;;;;9.30;3.00;;;;;;;;;;5087835;28;20179;-72
2023/03/26 04:53:49;;;;;;;10.23;2.13;;;;;;;;;;5084062;28;20519;-72
2023/03/26 04:56:33;;;;;;;10.30;2.27;;;;;;;;;;5092912;28;20424;-72
2023/03/26 04:59:00;;;;;;;4.73;1.67;;;;;;;;;;5106407;28;20513;-72
2023/03/26 05:01:29;;;;;;;9.20;2.40;;;;;;;;;;5093400;28;20417;-72
2023/03/26 05:03:55;;;;;;;7.40;1.80;;;;;;;;;;5099048;28;20419;-72
2023/03/26 05:06:21;;;;;;;15.27;2.77;;;;;;;;;;5090453;28;20460;-72
2023/03/26 05:08:46;;;;;;;9.37;1.90;;;;;;;;;;5087523;28;20583;-73
2023/03/26 05:11:11;;;;;;;8.47;1.87;;;;;;;;;;5073900;28;20171;-71
2023/03/26 05:13:37;;;;;;;9.27;2.50;;;;;;;;;;5081443;28;20228;-72
2023/03/26 05:16:03;;;;;;;10.10;4.00;;;;;;;;;;5075528;28;20175;-72
2023/03/26 05:18:28;;;;;;;11.23;3.57;;;;;;;;;;5070914;28;20881;-72
2023/03/26 05:20:54;;;;;;;10.43;3.47;;;;;;;;;;5075649;28;20183;-72
2023/03/26 05:23:23;;;;;;;10.70;3.03;;;;;;;;;;5059142;22;20304;-70
2023/03/26 05:25:48;;;;;;;6.97;2.03;;;;;;;;;;4988751;28;20453;-71
2023/03/26 05:28:13;;;;;;;10.20;2.03;;;;;;;;;;5028408;28;20474;-71
2023/03/26 05:30:39;;;;;;;11.13;2.40;;;;;;;;;;4967560;28;20283;-70
2023/03/26 05:33:05;;;;;;;10.90;2.40;;;;;;;;;;4967282;28;20180;-69
2023/03/26 05:35:30;;;;;;;8.83;2.40;;;;;;;;;;4987197;28;20172;-72
2023/03/26 05:37:56;;;;;;;8.53;2.57;;;;;;;;;;4967286;28;20449;-70
2023/03/26 05:40:21;;;;;;;8.40;2.47;;;;;;;;;;4968834;28;20194;-70
2023/03/26 05:42:46;;;;;;;8.67;2.53;;;;;;;;;;4967400;28;20184;-71
2023/03/26 05:45:12;;;;;;;5.17;2.00;;;;;;;;;;4973956;28;20180;-71
2023/03/26 05:47:38;;;;;;;8.00;2.37;;;;;;;;;;4971698;28;20597;-69
2023/03/26 05:50:04;;;;;;;8.77;2.33;;;;;;;;;;4981449;28;20459;-71
2023/03/26 05:52:29;;;;;;;13.97;3.03;;;;;;;;;;4972996;28;20262;-71
2023/03/26 05:54:55;;;;;;;12.67;3.10;;;;;;;;;;4946503;28;20431;-73
2023/03/26 05:57:21;;;;;;;7.70;2.50;;;;;;;;;;4971094;28;20192;-70
2023/03/26 05:59:46;;;;;;;7.03;1.60;;;;;;;;;;4972853;28;20246;-71
2023/03/26 06:02:12;;;;;;;11.40;2.17;;;;;;;;;;4971747;28;20427;-70
2023/03/26 06:04:41;;;;;;;15.50;2.37;;;;;;;;;;4957608;28;20184;-71
2023/03/26 06:07:09;;;;;;;9.97;2.13;;;;;;;;;;4985666;28;20241;-72
2023/03/26 06:09:37;;;;;;;8.20;2.40;;;;;;;;;;4972755;28;20997;-72
2023/03/26 06:12:03;;;;;;;7.70;2.23;;;;;;;;;;4968590;28;20450;-70
2023/03/26 06:14:28;;;;;;;9.77;3.03;;;;;;;;;;4972603;28;20435;-71
2023/03/26 06:16:53;;;;;;;7.60;2.20;;;;;;;;;;4953981;28;20183;-72
2023/03/26 06:19:19;;;;;;;9.40;2.30;;;;;;;;;;4952920;28;20238;-70
2023/03/26 06:21:44;;;;;;;6.53;2.30;;;;;;;;;;4984721;28;20220;-70
2023/03/26 06:24:10;;;;;;;8.30;2.33;;;;;;;;;;4980279;28;20249;-70
2023/03/26 06:26:35;;;;;;;13.77;3.00;;;;;;;;;;4959190;28;20187;-70
2023/03/26 06:29:00;;;;;;;8.00;2.30;;;;;;;;;;4956980;28;20729;-73
2023/03/26 06:31:26;;;;;;;9.30;1.93;;;;;;;;;;4958160;28;20176;-68
2023/03/26 06:33:52;;;;;;;11.13;2.70;;;;;;;;;;4967806;28;20211;-71
2023/03/26 06:36:17;;;;;;;13.60;2.30;;;;;;;;;;5031666;28;20179;-70
2023/03/26 06:38:42;;;;;;;8.80;2.33;;;;;;;;;;4960210;28;20462;-69
2023/03/26 06:41:10;;;;;;;14.60;2.40;;;;;;;;;;4977860;28;20180;-71
2023/03/26 06:43:36;;;;;;;6.97;2.00;;;;;;;;;;5028578;28;20206;-70
2023/03/26 06:46:02;;;;;;;11.97;2.20;;;;;;;;;;4958341;28;20442;-70
2023/03/26 06:48:27;;;;;;;7.83;2.30;;;;;;;;;;5019208;28;20462;-70
2023/03/26 06:50:53;;;;;;;13.50;2.67;;;;;;;;;;4965671;28;20435;-69
2023/03/26 06:53:18;;;;;;;16.90;2.67;;;;;;;;;;4966240;28;20188;-71
2023/03/26 06:55:43;;;;;;;10.13;2.40;;;;;;;;;;4965253;28;20228;-72
2023/03/26 06:58:10;;;;;;;11.00;2.10;;;;;;;;;;4958989;28;20691;-73
2023/03/26 07:00:38;;;;;;;8.83;2.17;;;;;;;;;;4979766;28;20190;-71
2023/03/26 07:03:04;;;;;;;12.70;2.67;;;;;;;;;;4978378;28;20528;-69
2023/03/26 07:05:29;;;;;;;8.57;2.10;;;;;;;;;;4960551;28;21175;-69
2023/03/26 07:07:55;;;;;;;9.17;3.07;;;;;;;;;;4967923;28;20466;-70
2023/03/26 07:10:20;;;;;;;9.00;2.37;;;;;;;;;;4984268;28;20649;-71
2023/03/26 07:12:45;;;;;;;9.00;1.90;;;;;;;;;;4975803;28;20184;-73
2023/03/26 07:15:11;;;;;;;6.70;2.27;;;;;;;;;;4976262;28;20175;-70
2023/03/26 07:17:36;;;;;;;7.57;2.47;;;;;;;;;;4975478;28;20229;-71
2023/03/26 07:20:02;;;;;;;10.63;2.20;;;;;;;;;;4965563;28;20269;-70
2023/03/26 07:22:28;;;;;;;8.00;2.20;;;;;;;;;;4971510;28;20229;-71
2023/03/26 07:24:53;;;;;;;6.73;2.50;;;;;;;;;;4972859;28;20442;-70
2023/03/26 07:27:22;;;;;;;7.43;2.43;;;;;;;;;;4950984;28;20279;-70
2023/03/26 07:29:51;;;;;;;6.20;2.17;;;;;;;;;;4960123;28;20222;-71
2023/03/26 07:32:27;;;;;;;6.73;2.13;;;;;;;;;;4955994;28;20439;-70
2023/03/26 07:35:01;;;;;;;8.50;2.40;;;;;;;;;;4953223;28;20934;-69
2023/03/26 07:37:36;;;;;;;7.00;2.30;;;;;;;;;;4956537;28;20978;-70
2023/03/26 07:40:21;;;;;;;4.93;1.90;;;;;;;;;;4944981;28;20435;-70
2023/03/26 07:42:46;;;;;;;5.30;1.87;;;;;;;;;;4984752;28;20451;-72
2023/03/26 07:45:16;;;;;;;5.60;2.10;;;;;;;;;;4987066;28;20442;-71
2023/03/26 07:47:41;;;;;;;15.40;2.37;;;;;;;;;;5022658;28;20206;-73
2023/03/26 07:50:13;;;;;;;6.53;2.07;;;;;;;;;;4972749;28;21228;-71
2023/03/26 07:52:38;;;;;;;7.23;2.43;;;;;;;;;;4981533;28;20335;-71
2023/03/26 07:55:04;;;;;;;8.07;2.40;;;;;;;;;;4982322;28;20426;-73
2023/03/26 07:57:43;;;;;;;6.87;2.10;;;;;;;;;;4989471;28;20228;-71
2023/03/26 08:00:20;;;;;;;9.60;2.53;;;;;;;;;;4968709;28;20178;-74
2023/03/26 08:03:09;;;;;;;10.37;2.23;;;;;;;;;;4970131;28;20453;-70
2023/03/26 08:05:49;;;;;;;14.23;3.40;;;;;;;;;;4960908;28;20528;-72
2023/03/26 08:08:20;;;;;;;8.43;2.43;;;;;;;;;;4949033;28;20478;-75
2023/03/26 08:10:52;;;;;;;10.07;2.90;;;;;;;;;;4972263;28;20440;-69
2023/03/26 08:13:37;;;;;;;10.83;1.87;;;;;;;;;;4968530;28;20462;-72
2023/03/26 08:16:11;;;;;;;7.63;2.17;;;;;;;;;;4991346;28;20425;-71
2023/03/26 08:18:55;;;;;;;8.00;2.00;;;;;;;;;;4949685;28;20726;-71
2023/03/26 08:21:30;;;;;;;6.40;1.60;;;;;;;;;;5027884;28;20430;-69
2023/03/26 08:23:59;;;;;;;12.57;1.97;;;;;;;;;;4971283;28;20567;-73
2023/03/26 08:26:43;;;;;;;6.63;1.83;;;;;;;;;;4972175;28;20451;-71
2023/03/26 08:29:28;;;;;;;6.33;2.00;;;;;;;;;;4987114;28;20482;-70
2023/03/26 08:31:56;;;;;;;11.27;2.00;;;;;;;;;;4969913;28;20436;-71
2023/03/26 08:34:21;;;;;;;8.10;2.57;;;;;;;;;;4971798;28;20488;-71
2023/03/26 08:36:47;;;;;;;9.43;2.20;;;;;;;;;;5019729;28;20431;-68
2023/03/26 08:39:13;;;;;;;6.23;1.97;;;;;;;;;;4953655;28;20207;-71
2023/03/26 08:41:41;;;;;;;8.63;2.60;;;;;;;;;;4990226;28;20183;-72
2023/03/26 08:44:06;;;;;;;9.27;2.57;;;;;;;;;;4956116;28;20429;-73
2023/03/26 08:46:41;;;;;;;11.47;2.33;;;;;;;;;;4963808;28;20461;-73
2023/03/26 08:49:26;;;;;;;6.90;1.80;;;;;;;;;;4976537;28;20644;-74
2023/03/26 08:51:51;;;;;;;11.53;2.30;;;;;;;;;;4990094;28;20418;-73
2023/03/26 08:54:32;;;;;;;8.20;1.90;;;;;;;;;;5036326;28;20415;-74
2023/03/26 08:57:24;;;;;;;9.30;2.03;;;;;;;;;;4979818;28;20254;-73
2023/03/26 09:00:02;;;;;;;8.57;2.37;;;;;;;;;;4965127;28;20839;-75
2023/03/26 09:02:47;;;;;;;8.47;2.10;;;;;;;;;;4968335;28;20462;-74
2023/03/26 09:05:24;;;;;;;10.87;2.23;;;;;;;;;;4973156;28;20461;-74
2023/03/26 09:08:08;;;;;;;11.00;3.43;;;;;;;;;;5028344;28;20903;-74
2023/03/26 09:11:06;;;;;;;7.50;2.20;;;;;;;;;;5032755;28;20462;-75
2023/03/26 09:13:50;;;;;;;7.37;1.93;;;;;;;;;;4970146;28;20449;-73
2023/03/26 09:16:45;;;;;;;10.77;2.33;;;;;;;;;;5034815;28;20429;-74
2023/03/26 09:19:49;;;;;;;7.10;2.10;;;;;;;;;;4960595;28;20476;-76
2023/03/26 09:22:33;;;;;;;7.93;1.93;;;;;;;;;;5025603;28;20459;-76
2023/03/26 09:25:07;;;;;;;8.23;1.90;;;;;;;;;;5022792;28;20447;-74
2023/03/26 09:27:45;;;;;;;7.70;2.20;;;;;;;;;;4995882;28;20453;-74
2023/03/26 09:30:29;;;;;;;6.00;1.87;;;;;;;;;;4966799;28;20435;-73
2023/03/26 09:33:05;;;;;;;13.43;2.07;;;;;;;;;;4975323;28;20443;-73
2023/03/26 09:35:36;;;;;;;12.67;2.30;;;;;;;;;;4980385;28;20454;-75
2023/03/26 09:38:10;;;;;;;7.90;2.17;;;;;;;;;;5027823;28;20466;-76
2023/03/26 09:40:52;;;;;;;7.77;1.80;;;;;;;;;;4979029;28;20426;-75
2023/03/26 09:43:21;;;;;;;6.53;1.73;;;;;;;;;;4968919;28;20427;-75
2023/03/26 09:45:58;;;;;;;9.47;2.13;;;;;;;;;;4975732;28;20430;-75
2023/03/26 09:48:38;;;;;;;8.80;2.37;;;;;;;;;;4978622;28;20842;-75
2023/03/26 09:51:16;;;;;;;4.50;1.60;;;;;;;;;;4978615;28;20437;-74
2023/03/26 09:53:41;;;;;;;8.00;1.90;;;;;;;;;;4969206;28;20488;-77
2023/03/26 09:56:06;;;;;;;5.53;1.70;;;;;;;;;;4972766;28;20423;-74
2023/03/26 09:58:41;;;;;;;14.13;2.20;;;;;;;;;;4968806;28;20564;-74
2023/03/26 10:01:25;;;;;;;5.50;1.90;;;;;;;;;;4978868;28;20181;-72
2023/03/26 10:04:11;;;;;;;9.20;2.17;;;;;;;;;;5034578;28;20865;-76
2023/03/26 10:06:36;;;;;;;10.60;2.10;;;;;;;;;;4983708;28;20440;-74
2023/03/26 10:09:04;;;;;;;6.90;2.10;;;;;;;;;;4969138;28;20478;-75
2023/03/26 10:11:36;;;;;;;10.90;2.30;;;;;;;;;;4991233;28;20711;-75
2023/03/26 10:14:14;;;;;;;4.70;1.50;;;;;;;;;;4999572;28;20903;-75
2023/03/26 10:16:52;;;;;;;7.17;2.43;;;;;;;;;;4994148;28;20512;-75
2023/03/26 10:19:27;;;;;;;9.00;1.70;;;;;;;;;;5000030;28;20449;-75
2023/03/26 10:21:56;;;;;;;9.63;2.10;;;;;;;;;;4980179;28;20456;-75
2023/03/26 10:24:57;;;;;;;6.13;2.07;;;;;;;;;;5039183;28;20443;-76
2023/03/26 10:27:57;;;;;;;6.80;2.47;;;;;;;;;;5003156;28;20432;-74
2023/03/26 10:30:41;;;;;;;3.97;1.57;;;;;;;;;;5000411;28;20450;-74
2023/03/26 10:33:18;;;;;;;6.47;1.87;;;;;;;;;;4977134;28;20518;-76
2023/03/26 10:36:10;;;;;;;4.77;1.90;;;;;;;;;;4996049;28;20435;-76
2023/03/26 10:38:36;;;;;;;10.53;2.70;;;;;;;;;;4968520;28;22343;-75
2023/03/26 10:41:04;;;;;;;8.27;2.30;;;;;;;;;;4973587;28;20439;-74
2023/03/26 10:43:49;;;;;;;4.30;1.73;;;;;;;;;;5033326;28;20283;-75
2023/03/26 10:46:33;;;;;;;5.73;1.80;;;;;;;;;;5040241;28;20947;-75
2023/03/26 10:49:17;;;;;;;14.40;1.67;;;;;;;;;;5004486;28;20467;-75
2023/03/26 10:51:54;;;;;;;4.23;1.40;;;;;;;;;;4999433;28;20435;-73
2023/03/26 10:54:20;;;;;;;7.10;1.73;;;;;;;;;;4998875;28;20442;-74
2023/03/26 10:56:48;;;;;;;7.87;1.73;;;;;;;;;;4990711;28;20448;-73
2023/03/26 10:59:14;;;;;;;10.03;2.07;;;;;;;;;;4993594;28;20211;-74
2023/03/26 11:01:52;;;;;;;7.13;2.43;;;;;;;;;;4949138;28;20431;-75
2023/03/26 11:04:23;;;;;;;7.30;2.00;;;;;;;;;;4992830;28;20434;-73
2023/03/26 11:06:54;;;;;;;8.40;2.13;;;;;;;;;;4975138;28;20438;-72
2023/03/26 11:09:32;;;;;;;6.77;2.00;;;;;;;;;;4967326;28;21314;-73
2023/03/26 11:12:19;;;;;;;7.13;1.93;;;;;;;;;;4983548;28;20440;-74
2023/03/26 11:14:53;;;;;;;6.40;2.20;;;;;;;;;;4990882;28;20525;-72
2023/03/26 11:17:23;;;;;;;6.30;1.70;;;;;;;;;;5041910;28;20449;-73
2023/03/26 11:19:51;;;;;;;7.40;1.93;;;;;;;;;;4969790;28;20477;-75
2023/03/26 11:22:35;;;;;;;7.90;2.37;;;;;;;;;;4993685;28;20472;-75
2023/03/26 11:25:20;;;;;;;6.27;2.23;;;;;;;;;;4999846;28;20468;-76
2023/03/26 11:28:08;;;;;;;10.73;2.30;;;;;;;;;;4985322;28;20448;-75
2023/03/26 11:30:33;;;;;;;6.33;2.00;;;;;;;;;;4960242;28;20950;-74
2023/03/26 11:33:08;;;;;;;6.50;2.20;;;;;;;;;;4980003;28;20439;-75
2023/03/26 11:35:39;;;;;;;11.23;2.33;;;;;;;;;;4984335;28;20176;-75
2023/03/26 11:38:06;;;;;;;7.07;2.10;;;;;;;;;;4998154;28;20453;-75
2023/03/26 11:40:33;;;;;;;7.47;1.63;;;;;;;;;;4996897;28;20440;-74
2023/03/26 11:43:01;;;;;;;10.53;2.20;;;;;;;;;;4988002;28;20464;-77
2023/03/26 11:45:28;;;;;;;8.10;2.50;;;;;;;;;;4978637;28;20481;-75
2023/03/26 11:48:08;;;;;;;7.10;1.73;;;;;;;;;;5029171;28;20462;-74
2023/03/26 11:50:35;;;;;;;7.20;2.00;;;;;;;;;;4984493;28;20421;-75
2023/03/26 11:53:16;;;;;;;7.03;1.80;;;;;;;;;;4987948;28;20434;-76
2023/03/26 11:56:08;;;;;;;7.67;2.70;;;;;;;;;;4979388;28;20471;-76
2023/03/26 11:58:39;;;;;;;10.37;2.40;;;;;;;;;;5008113;28;20456;-77
2023/03/26 12:01:12;;;;;;;10.47;2.60;;;;;;;;;;4984515;28;20422;-75
2023/03/26 12:03:39;;;;;;;9.73;2.03;;;;;;;;;;4989814;28;20449;-75
2023/03/26 12:06:05;;;;;;;6.40;1.60;;;;;;;;;;5031872;28;20438;-75
2023/03/26 12:08:36;;;;;;;6.20;1.80;;;;;;;;;;4975174;28;20993;-73
2023/03/26 12:11:09;;;;;;;12.10;2.60;;;;;;;;;;4969703;28;20675;-74
2023/03/26 12:13:49;;;;;;;6.17;1.77;;;;;;;;;;4972575;28;20431;-73
2023/03/26 12:16:17;;;;;;;9.73;1.97;;;;;;;;;;4990779;28;20442;-73
2023/03/26 12:18:44;;;;;;;11.47;3.17;;;;;;;;;;4975288;28;20454;-74
2023/03/26 12:21:12;;;;;;;7.50;1.70;;;;;;;;;;4982757;28;20477;-74
2023/03/26 12:23:56;;;;;;;7.70;1.73;;;;;;;;;;5033066;28;20982;-76
2023/03/26 12:26:43;;;;;;;8.97;2.10;;;;;;;;;;4989376;28;20437;-73
2023/03/26 12:29:11;;;;;;;7.43;1.90;;;;;;;;;;4994075;28;20481;-74
2023/03/26 12:31:41;;;;;;;4.67;1.50;;;;;;;;;;5001647;28;20413;-77
2023/03/26 12:34:17;;;;;;;7.70;2.50;;;;;;;;;;4980058;28;20471;-75
2023/03/26 12:36:53;;;;;;;6.43;1.77;;;;;;;;;;4965676;28;20446;-75
2023/03/26 12:39:26;;;;;;;7.07;1.90;;;;;;;;;;4989556;28;20977;-75
2023/03/26 12:41:58;;;;;;;6.73;1.90;;;;;;;;;;4986041;28;20454;-74
2023/03/26 12:44:32;;;;;;;5.70;2.00;;;;;;;;;;4989128;28;20446;-73
2023/03/26 12:47:11;;;;;;;4.63;1.70;;;;;;;;;;4973560;28;20432;-75
2023/03/26 12:49:36;;;;;;;8.83;2.17;;;;;;;;;;4974287;28;21015;-75
2023/03/26 12:52:20;;;;;;;5.73;1.70;;;;;;;;;;5000671;28;20461;-77
2023/03/26 12:54:50;;;;;;;7.03;2.07;;;;;;;;;;4994404;28;20217;-73
2023/03/26 12:57:29;;;;;;;6.97;1.93;;;;;;;;;;4993853;28;20445;-76
2023/03/26 13:00:24;;;;;;;9.40;2.40;;;;;;;;;;4971293;28;20443;-79
2023/03/26 13:03:08;;;;;;;12.33;2.03;;;;;;;;;;4981121;28;21118;-76
2023/03/26 13:05:38;;;;;;;6.60;1.90;;;;;;;;;;4990365;28;20484;-75
2023/03/26 13:08:11;;;;;;;11.43;2.37;;;;;;;;;;4971483;28;20599;-74
2023/03/26 13:10:36;;;;;;;9.50;2.60;;;;;;;;;;4973821;28;20435;-74
2023/03/26 13:13:08;;;;;;;7.43;2.10;;;;;;;;;;4994185;28;20487;-74
2023/03/26 13:15:47;;;;;;;8.90;2.07;;;;;;;;;;4998828;28;20176;-74
2023/03/26 13:18:35;;;;;;;10.27;2.30;;;;;;;;;;4968123;28;20531;-73
2023/03/26 13:21:19;;;;;;;7.67;1.90;;;;;;;;;;4980770;28;20454;-76
2023/03/26 13:24:07;;;;;;;9.47;2.03;;;;;;;;;;4994287;28;20927;-73
2023/03/26 13:26:45;;;;;;;5.20;1.90;;;;;;;;;;4978706;28;20470;-75
2023/03/26 13:29:29;;;;;;;10.00;2.03;;;;;;;;;;4970019;28;20477;-75
2023/03/26 13:32:06;;;;;;;9.70;2.20;;;;;;;;;;4972105;28;20462;-76
2023/03/26 13:34:39;;;;;;;3.83;1.70;;;;;;;;;;4980801;28;20434;-76
2023/03/26 13:37:34;;;;;;;5.63;1.87;;;;;;;;;;4981344;28;20435;-75
2023/03/26 13:40:23;;;;;;;7.80;1.80;;;;;;;;;;5009215;28;20443;-75
2023/03/26 13:43:07;;;;;;;16.70;2.30;;;;;;;;;;4966704;28;20431;-75
2023/03/26 13:45:38;;;;;;;7.53;1.77;;;;;;;;;;4976256;28;20997;-74
2023/03/26 13:48:04;;;;;;;6.03;1.50;;;;;;;;;;4982424;28;21112;-75
2023/03/26 13:50:34;;;;;;;8.67;2.53;;;;;;;;;;4953074;28;20469;-75
2023/03/26 13:53:29;;;;;;;4.33;1.60;;;;;;;;;;4956894;28;20461;-75
2023/03/26 13:55:57;;;;;;;7.13;1.60;;;;;;;;;;4971647;28;20827;-75
2023/03/26 13:58:35;;;;;;;8.67;2.00;;;;;;;;;;5027664;28;20458;-74
2023/03/26 14:01:10;;;;;;;10.90;2.67;;;;;;;;;;4983141;28;20450;-76
2023/03/26 14:03:36;;;;;;;6.07;1.77;;;;;;;;;;5043316;28;20511;-77
2023/03/26 14:06:06;;;;;;;4.80;1.73;;;;;;;;;;4985632;28;20470;-75
2023/03/26 14:08:38;;;;;;;7.33;1.73;;;;;;;;;;5035187;28;20222;-76
2023/03/26 14:11:09;;;;;;;8.23;1.90;;;;;;;;;;4993042;28;20434;-75
2023/03/26 14:13:35;;;;;;;9.20;2.30;;;;;;;;;;4972824;28;20516;-75
2023/03/26 14:16:03;;;;;;;9.83;1.70;;;;;;;;;;4970453;28;20817;-75
2023/03/26 14:18:35;;;;;;;6.53;1.90;;;;;;;;;;4959943;28;21527;-75
2023/03/26 14:21:07;;;;;;;6.03;1.60;;;;;;;;;;4939050;28;20448;-75
2023/03/26 14:26:44;;;;;;;8.40;1.93;;;;;;;;;;4950915;28;20498;-68
2023/03/26 14:29:28;;;;;;;9.60;2.60;;;;;;;;;;4955145;28;20576;-66
2023/03/26 14:31:56;;;;;;;11.23;2.37;;;;;;;;;;4956700;28;20477;-66
2023/03/26 14:34:22;;;;;;;9.70;2.13;;;;;;;;;;4958152;28;20438;-66
2023/03/26 14:36:53;;;;;;;5.53;1.80;;;;;;;;;;4948671;28;22417;-67
2023/03/26 14:39:37;;;;;;;6.53;2.10;;;;;;;;;;4947673;28;20259;-66
2023/03/26 14:42:15;;;;;;;8.37;1.80;;;;;;;;;;4948062;28;20908;-67
2023/03/26 14:45:02;;;;;;;6.30;2.37;;;;;;;;;;4948427;28;20446;-67
2023/03/26 14:47:27;;;;;;;6.93;1.90;;;;;;;;;;4948238;28;20433;-66
2023/03/26 14:50:07;;;;;;;4.87;1.80;;;;;;;;;;4954800;28;20480;-67
2023/03/26 14:52:46;;;;;;;8.87;1.87;;;;;;;;;;4953025;28;20186;-67
2023/03/26 14:55:15;;;;;;;5.17;1.67;;;;;;;;;;4961243;28;20445;-66
2023/03/26 14:58:00;;;;;;;6.77;1.63;;;;;;;;;;4955798;28;20442;-67
2023/03/26 15:00:28;;;;;;;8.37;1.93;;;;;;;;;;4961344;28;20433;-67
2023/03/26 15:02:54;;;;;;;6.73;1.97;;;;;;;;;;4956594;28;20434;-67
2023/03/26 15:05:25;;;;;;;12.47;2.60;;;;;;;;;;4958802;28;20942;-66